Ten Sleep, Wyoming
Current Conditions -  °F | °C
As of 11:13 AM on Monday 22 Dec 2014 (Local Time) from KWRL Reporting Station
Light Snow Light Snow  
Wind Chill: 31°   Ceiling: 2200
Heat Index: 31°   Visibility: 7mi
Dew Point: 29°   Wind: 3mph
Humidity: 92%   Direction: 280°W
Pressure: 29.81"   Gusts: NA
Location:  44.03°N, 107.45°W
Report Text: KWRL 221813Z AUTO 28003KT 7SM -SN SCT010 BKN022 OVC029 M01/M02 A2981 RMK AO2 P0000 T10061017
Loading
Personal Weather Stations






























Interactive Weather Map New forecast layout! Learn more

10-Day Weather Forecast

Advertisements
Track Severe Weather on mobile